This is the latest recevied weather packets stored in our database for station/object KG2V. If no packets are shown the sender has not sent any weather packets the latest 10 day(s).
| Time | Temp. | Humidity | Pressure | Rain* | Wind** | Luminosity | Snow |
|---|---|---|---|---|---|---|---|
| 1777503429 | 7.78° C | 99% | 1002.9 hPa | 1.27 mm | - | 20 W/m² | - |
| 1777503124 | 7.78° C | 99% | 1003.3 hPa | 1.78 mm | - | 12 W/m² | - |
| 1777502822 | 7.78° C | 99% | 1003.3 hPa | 4.83 mm | - | 12 W/m² | - |
| 1777502519 | 7.78° C | 99% | 1003.6 hPa | 6.1 mm | - | 13 W/m² | - |
| 1777502216 | 7.78° C | 99% | 1003.6 hPa | 7.87 mm | - | 10 W/m² | - |
| 1777501913 | 7.78° C | 99% | 1003.6 hPa | 7.87 mm | - | 9 W/m² | - |
| 1777501610 | 7.78° C | 99% | 1003.2 hPa | 6.6 mm | - | 14 W/m² | - |
| 1777501307 | 7.78° C | 99% | 1003.4 hPa | 3.05 mm | - | 12 W/m² | - |
| 1777501005 | 7.78° C | 99% | 1003.5 hPa | 3.05 mm | - | 9 W/m² | - |
| 1777500703 | 7.78° C | 99% | 1003.1 hPa | 3.05 mm | - | 11 W/m² | - |
| 1777500399 | 7.78° C | 99% | 1002.8 hPa | 6.1 mm | - | 16 W/m² | - |
| 1777500095 | 7.78° C | 99% | 1003 hPa | 7.87 mm | - | 12 W/m² | - |
| 1777499792 | 7.78° C | 99% | 1003 hPa | 6.1 mm | - | 16 W/m² | - |
| 1777499489 | 7.78° C | 99% | 1002.9 hPa | 4.32 mm | - | 14 W/m² | - |
| 1777499187 | 7.78° C | 99% | 1002.9 hPa | 4.83 mm | - | 20 W/m² | - |
| 1777498883 | 7.78° C | 99% | 1002.7 hPa | 4.83 mm | - | 20 W/m² | - |
| 1777498580 | 7.78° C | 99% | 1002.7 hPa | 3.05 mm | - | 23 W/m² | - |
| 1777498276 | 7.78° C | 99% | 1002.7 hPa | 3.05 mm | - | 24 W/m² | - |
| 1777497975 | 7.78° C | 99% | 1003.2 hPa | 4.83 mm | - | 19 W/m² | - |
| 1777497670 | 7.78° C | 99% | 1003 hPa | 4.83 mm | - | 23 W/m² | - |
| 1777497367 | 7.78° C | 99% | 1002.9 hPa | 3.05 mm | - | 26 W/m² | - |
| 1777497062 | 7.78° C | 99% | 1002.9 hPa | 1.27 mm | - | 29 W/m² | - |
| 1777496759 | 7.78° C | 99% | 1003.3 hPa | 1.27 mm | - | 25 W/m² | - |
| 1777496456 | 7.78° C | 99% | 1003.3 hPa | 1.78 mm | - | 28 W/m² | - |
| 1777496153 | 8.33° C | 99% | 1003.4 hPa | 3.05 mm | - | 32 W/m² | - |
* Rain latest hour (hover to see other rain measurements)
** Current wind speed in m/s (hover to see current wind gust speed)